Bei Facebook empfehlenBei Twitter postenGoogle plusPinterest

Das Wetter im Erzgebirge am 14.10.2016

Wetter und Klima am 14.10.2016 Holzhau im Erzgebirge (630m ü.NN)
Letzte gemessene Temperatur und Uhrzeit der Messung23:45:00 Uhr6.60 °C
Temperatur (Maximum / Höchstwert) und Uhrzeit der Messung14:15:00 Uhr7.20 °C
Temperatur (Minimum / Tiefstwert) und Uhrzeit der Messung01:00:003.40 °C
Errechneter Absolutwert der Temperaturschwankungen zwischen Tmin und Tmax des Tages3.80 K
Errechnete Tagesmitteltemperatur5.48229 °C
Gesamt - Niederschlag des Tages (in flüssiger Form)0.00 Liter / m²
Luftdruck (Maximum / Höchstwert) und Zeitpunkt der Messung00:30:00 Uhr1013.50 hPa
Luftdruck (Minimum / Tiefstwert) und Zeitpunkt der Messung23:00:00 Uhr1007.60 hPa
Errechneter Absolutwert der Luftdruckschwankungen des Tages5.90 hPa
Höchste gemessene Windgeschwindigkeit und Uhrzeit der Messung23:45:00 Uhr0.00 km/h
Errechnete Windhäufigkeit in Relation zu den Messwerten des Tages0.00000 %
Niedrigste Windkühle (Windchill) und Zeitpunkt der Messung01:00:00 Uhr3.40 °C
Taupunkt (Maximum / Höchstwert) und Uhrzeit der Messung11:15:00 Uhr5.90 °C
Taupunkt (Minimum / Tiefstwert) und Uhrzeit der Messung01:00:002.50 °C
Anzahl der automatisch eingelesenen Messwerte 96

Detaillierte Wetter- und Klima- Messwerte für den 14.10.2016 in Holzhau im Erzgebirge (630m ü.NN)
ZeitTemperaturLuftdruckRel. LuftfeuchteWindWindrichtungWindchillTaupunktNiederschlag l/m²
23:45:006.60 °C1007.90 hPa93.00 %5.60 °C 
23:30:006.50 °C1007.80 hPa93.00 %5.50 °C 
23:15:006.60 °C1007.70 hPa93.00 %5.60 °C 
23:00:006.60 °C1007.60 hPa93.00 %5.60 °C 
22:45:006.60 °C1007.60 hPa93.00 %5.60 °C 
22:30:006.60 °C1008.00 hPa93.00 %5.60 °C 
22:15:006.60 °C1008.10 hPa93.00 %5.60 °C 
22:00:006.50 °C1008.50 hPa93.00 %5.50 °C 
21:45:006.40 °C1008.60 hPa93.00 %5.40 °C 
21:30:006.40 °C1008.50 hPa93.00 %5.40 °C 
21:15:006.40 °C1008.40 hPa92.00 %5.20 °C 
21:00:006.40 °C1008.60 hPa92.00 %5.20 °C 
20:45:006.50 °C1008.70 hPa92.00 %5.30 °C 
20:30:006.50 °C1008.70 hPa92.00 %5.30 °C 
20:15:006.50 °C1009.00 hPa92.00 %5.30 °C 
20:00:006.50 °C1009.30 hPa92.00 %5.30 °C 
19:45:006.50 °C1009.60 hPa92.00 %5.30 °C 
19:30:006.40 °C1010.00 hPa92.00 %5.20 °C 
19:15:006.40 °C1010.00 hPa92.00 %5.20 °C 
19:00:006.30 °C1009.80 hPa92.00 %5.10 °C 
18:45:006.20 °C1009.70 hPa92.00 %5.00 °C 
18:30:006.20 °C1009.90 hPa92.00 %5.00 °C 
18:15:006.20 °C1010.20 hPa92.00 %5.00 °C 
18:00:006.10 °C1010.10 hPa91.00 %4.70 °C 
17:45:006.10 °C1009.70 hPa91.00 %4.70 °C 
17:30:006.10 °C1009.60 hPa91.00 %4.70 °C 
17:15:006.20 °C1009.60 hPa91.00 %4.80 °C 
17:00:006.20 °C1009.80 hPa91.00 %4.80 °C 
16:45:006.10 °C1010.00 hPa91.00 %4.70 °C 
16:30:006.10 °C1009.80 hPa91.00 %4.70 °C 
16:15:006.10 °C1010.00 hPa90.00 %4.60 °C 
16:00:006.30 °C1009.90 hPa90.00 %4.80 °C 
15:45:006.40 °C1010.20 hPa90.00 %4.90 °C 
15:30:006.80 °C1010.10 hPa90.00 %5.30 °C 
15:15:006.70 °C1010.30 hPa90.00 %5.20 °C 
15:00:006.90 °C1010.00 hPa90.00 %5.40 °C 
14:45:006.90 °C1010.10 hPa90.00 %5.40 °C 
14:30:007.10 °C1010.10 hPa91.00 %5.70 °C 
14:15:007.20 °C1010.10 hPa91.00 %5.80 °C 
14:00:007.00 °C1010.30 hPa91.00 %5.60 °C 
13:45:007.00 °C1010.30 hPa92.00 %5.80 °C 
13:30:006.90 °C1010.70 hPa92.00 %5.70 °C 
13:15:006.90 °C1010.80 hPa92.00 %5.70 °C 
13:00:006.80 °C1010.80 hPa92.00 %5.60 °C 
12:45:006.80 °C1011.20 hPa92.00 %5.60 °C 
12:30:006.60 °C1011.00 hPa92.00 %5.40 °C 
12:15:006.60 °C1011.00 hPa92.00 %5.40 °C 
12:00:006.60 °C1010.80 hPa92.00 %5.40 °C 
11:45:006.80 °C1010.80 hPa93.00 %5.70 °C 
11:30:006.80 °C1010.50 hPa93.00 %5.70 °C 
11:15:006.80 °C1010.50 hPa94.00 %5.90 °C 
11:00:006.40 °C1010.50 hPa94.00 %5.50 °C 
10:45:006.30 °C1010.50 hPa94.00 %5.40 °C 
10:30:005.90 °C1010.40 hPa94.00 %5.00 °C 
10:15:005.80 °C1010.40 hPa94.00 %4.90 °C 
10:00:005.60 °C1010.50 hPa94.00 %4.70 °C 
09:45:005.40 °C1010.50 hPa95.00 %4.70 °C 
09:30:005.30 °C1010.30 hPa95.00 %4.60 °C 
09:15:005.10 °C1010.20 hPa94.00 %4.20 °C 
09:00:004.90 °C1010.20 hPa94.00 %4.00 °C 
08:45:004.80 °C1010.30 hPa94.00 %3.90 °C 
08:30:004.60 °C1010.70 hPa94.00 %3.70 °C 
08:15:004.60 °C1010.50 hPa94.00 %3.70 °C 
08:00:004.60 °C1010.60 hPa94.00 %3.70 °C 
07:45:004.60 °C1010.50 hPa94.00 %3.70 °C 
07:30:004.50 °C1010.30 hPa94.00 %3.60 °C 
07:15:004.40 °C1010.50 hPa94.00 %3.50 °C 
07:00:004.40 °C1010.70 hPa94.00 %3.50 °C 
06:45:004.30 °C1010.70 hPa94.00 %3.40 °C 
06:30:004.30 °C1010.70 hPa94.00 %3.40 °C 
06:15:004.20 °C1010.80 hPa94.00 %3.30 °C 
06:00:004.20 °C1010.80 hPa94.00 %3.30 °C 
05:45:004.20 °C1011.10 hPa94.00 %3.30 °C 
05:30:004.20 °C1011.20 hPa94.00 %3.30 °C 
05:15:004.10 °C1011.60 hPa94.00 %3.20 °C 
05:00:004.10 °C1011.70 hPa94.00 %3.20 °C 
04:45:003.90 °C1011.90 hPa94.00 %3.00 °C 
04:30:003.90 °C1011.70 hPa94.00 %3.00 °C 
04:15:003.80 °C1011.70 hPa94.00 %2.90 °C 
04:00:003.80 °C1011.80 hPa94.00 %2.90 °C 
03:45:003.80 °C1012.00 hPa94.00 %2.90 °C 
03:30:003.80 °C1012.10 hPa94.00 %2.90 °C 
03:15:003.70 °C1012.10 hPa94.00 %2.80 °C 
03:00:003.60 °C1012.20 hPa94.00 %2.70 °C 
02:45:003.60 °C1012.40 hPa94.00 %2.70 °C 
02:30:003.60 °C1012.40 hPa94.00 %2.70 °C 
02:15:003.60 °C1012.60 hPa94.00 %2.70 °C 
02:00:003.50 °C1012.80 hPa94.00 %2.60 °C 
01:45:003.50 °C1012.90 hPa94.00 %2.60 °C 
01:30:003.50 °C1013.10 hPa94.00 %2.60 °C 
01:15:003.50 °C1013.20 hPa94.00 %2.60 °C 
01:00:003.40 °C1013.30 hPa94.00 %2.50 °C 
00:45:003.40 °C1013.30 hPa94.00 %2.50 °C 
00:30:003.40 °C1013.50 hPa94.00 %2.50 °C 
00:15:003.40 °C1013.40 hPa94.00 %2.50 °C 
00:00:003.50 °C1013.30 hPa94.00 %2.60 °C 

Permanenter Link zu dieser Seite: Wetter im Erzgebirge am 14.10.2016
Performance-Info: Die Erstellung der Seite / Statistik(en) / Tabelle(n) erforderte 5 Datenbankserver-Abfrage(n) und dauerte 99 Millisekunden. (Dieser Messwert ist von der Gesamt-Auslastung des Servers abhängig.)
Erzgebirge - Wetter | Erzgebirge - Wetter (Mobilgeräte) | Komplette Klimadatenbank